PABRPASC

Guest
Details From PABR - WILEY POST WILL ROGERS MEM
To PASC - DEADHORSE
Flight Number -
Tags generated
Created
Modified
Stats Distance 180 nm / 333 km
Max Altitude 17,000 ft / 5,182 m
Waypoints 4
Social Downloads 2
Likes 0
Share VATSIM

Download

Looking for another format? Having issues loading an existing format? Contact us
Advertisement - Login to hide

Notes

Basic altitude profile: - Ascent Rate: 2500ft/min - Ascent Speed: 250kts - Cruise Altitude: 35000ft - Cruise Speed: 420kts - Descent Rate: 1500ft/min - Descent Speed: 250kts Options: - Use NATs: no - Use PACOTS: no - Use low airways: no - Use high airways: yes

Route

PABR BRW J507 SCC PASC

ID Type Via Altitude Latitude Longitude Leg Dist Tot Dist Heading (true) Name
O PABR APT - 0 ft / 0 m 71.28466˚ -156.76875˚ - 0 nm - WILEY POST WILL ROGERS MEM
BRW VOR - 200 ft / 61 m 71.27342˚ -156.78811˚ 0 nm 0 nm 209° / 209° BARROW VOR-DME
SCC VOR J507 (AWY-HI) 17,000 ft / 5,182 m 70.19919˚ -148.41617˚ 177 nm 178 nm 107° / 115° DEADHORSE VOR-DME
O PASC APT - 0 ft / 0 m 70.19475˚ -148.46516˚ 1 nm 179 nm 255° / 255° DEADHORSE

Altitude Profile

Advertisement - Login to hide

Weather


0- 5 10 15 20 25 30 35+ Temperature / ° C

Clouds and Precipitation
Forecast for 2018-05-25 06:00 UTC. Updated a minute ago

Ground ~20,000 ft ~40,000 ft Winds

PABR

Details ICAO PABR (BRW)
Name WILEY POST WILL ROGERS MEM
Region USA (Alaska)
Timezone America/Anchorage (UTC-8.0)
Stats Elevation 44 ft / 13 m (AMSL)
Location 71.284660° -156.768746°
Runways 1
Magnetic Variation 14.284° E

METAR

PABR 250453Z 08013KT 10SM OVC006 M03/M04 A2995

Decode

TAF

PABR 242339Z 2500/2524 09017KT 4SM BR OVC007 FM251300 07014KT 1SM BR OVC005 FM252000 07016KT 4SM BR SCT005 BKN025

Decode

Departure Runways

ID Width Length Bearing (true) Bearing (mag) Surface Threshold Offset Overrun Length
07 151 ft / 46 m 7,107 ft / 2,166 m 91.11° 76.83° Asphalt 0 ft / 0 m 0 ft / 0 m
25 151 ft / 46 m 7,107 ft / 2,166 m 271.17° 256.89° Asphalt 0 ft / 0 m 0 ft / 0 m

PASC

Details ICAO PASC (SCC)
Name DEADHORSE
Region USA (Alaska)
Timezone America/Anchorage (UTC-8.0)
Stats Elevation 64 ft / 20 m (AMSL)
Location 70.194754° -148.465162°
Runways 1
Magnetic Variation 17.743° E

METAR

PASC 250453Z 07023G30KT 10SM OVC006 M02/M03 A2987

Decode

TAF

TAF TAF AMD PASC 250316Z 2503/2524 08027KT 3SM BR OVC007 FM250600 07020KT 1 1/2SM BR OVC005 FM252100 07017KT 3SM BR OVC007

Decode

Destination Runways

ID Width Length Bearing (true) Bearing (mag) Surface Threshold Offset Overrun Length
04 151 ft / 46 m 6,506 ft / 1,983 m 74.98° 57.24° Asphalt 0 ft / 0 m 0 ft / 0 m
22 151 ft / 46 m 6,506 ft / 1,983 m 255.03° 237.29° Asphalt 0 ft / 0 m 0 ft / 0 m

Approach Navaids

Runway Type Ident Frequency Range Bearing (true) Bearing (mag) Slope Elevation
04 Localiser ISCC 109.30 MHz 18 nm / 33 km 75.03° 57.29° - 64 ft / 20 m (AMSL)
04 Glidescope ISCC 109.30 MHz 10 nm / 19 km 75.00° 57.26° 3.00° 52 ft / 16 m (AMSL)

Popular Alternatives